Time;durP1;ratioP1;P1;durP2;ratioP2;P2;SDS_P1;SDS_P2;PMS_P1;PMS_P2;Temp;Humidity;BMP_temperature;BMP_pressure;BME280_temperature;BME280_humidity;BME280_pressure;Samples;Min_cycle;Max_cycle;Signal;HPM_P1;HPM_P2
2022/12/01 00:01:52;;;;;;;48.47;24.02;;;5.60;99.90;;;;;;6131080;23;20032;-89
2022/12/01 00:04:23;;;;;;;49.55;23.83;;;5.20;99.90;;;;;;6131413;23;20030;-90
2022/12/01 00:06:52;;;;;;;47.83;24.20;;;6.90;99.90;;;;;;6131768;23;20021;-90
2022/12/01 00:12:07;;;;;;;;;;;5.10;99.90;;;;;;6157545;23;20346;-90
2022/12/01 00:14:33;;;;;;;47.88;24.25;;;4.90;99.90;;;;;;6157465;23;19963;-89
2022/12/01 00:17:03;;;;;;;48.58;24.55;;;3.60;99.90;;;;;;6132338;23;20056;-90
2022/12/01 00:19:35;;;;;;;46.45;23.42;;;4.80;99.90;;;;;;6132756;23;20404;-89
2022/12/01 00:22:00;;;;;;;50.53;24.23;;;4.80;99.90;;;;;;6157048;23;20024;-89
2022/12/01 00:24:29;;;;;;;50.90;25.45;;;4.60;99.90;;;;;;6156953;23;20014;-89
2022/12/01 00:26:57;;;;;;;51.53;24.55;;;4.80;99.90;;;;;;6132843;23;20568;-89
2022/12/01 00:29:25;;;;;;;44.40;23.67;;;6.20;99.90;;;;;;6131521;23;20021;-89
2022/12/01 00:31:53;;;;;;;48.40;24.60;;;4.90;99.90;;;;;;6132203;23;20105;-88
2022/12/01 00:34:24;;;;;;;50.90;24.15;;;4.60;99.90;;;;;;6132273;23;20060;-89
2022/12/01 00:36:53;;;;;;;52.05;23.63;;;6.20;99.90;;;;;;6156773;23;20044;-89
2022/12/01 00:39:24;;;;;;;51.28;25.27;;;4.80;99.90;;;;;;6156920;23;20318;-89
2022/12/01 00:41:50;;;;;;;51.58;24.80;;;4.40;99.90;;;;;;6107155;23;20074;-88
2022/12/01 00:44:26;;;;;;;54.22;26.30;;;6.20;99.90;;;;;;6132182;23;20504;-89
2022/12/01 00:46:55;;;;;;;50.25;23.98;;;6.00;99.90;;;;;;6157229;23;20048;-89
2022/12/01 00:49:20;;;;;;;48.15;24.23;;;4.40;99.90;;;;;;6107690;23;20021;-90
2022/12/01 00:51:46;;;;;;;50.88;25.20;;;5.00;99.90;;;;;;6132954;23;20021;-90
2022/12/01 00:54:14;;;;;;;48.97;24.75;;;5.70;99.90;;;;;;6132521;23;20024;-89
2022/12/01 00:56:49;;;;;;;54.53;26.45;;;4.50;99.90;;;;;;6132618;23;20052;-89
2022/12/01 00:59:18;;;;;;;56.45;24.75;;;5.00;99.90;;;;;;6156183;23;20441;-90
2022/12/01 01:01:46;;;;;;;50.33;25.13;;;4.80;99.90;;;;;;6155767;23;20147;-89
2022/12/01 01:04:15;;;;;;;51.75;26.98;;;5.70;99.90;;;;;;6132167;23;20448;-89
2022/12/01 01:06:42;;;;;;;47.92;23.90;;;4.50;99.90;;;;;;6156998;23;20142;-90
2022/12/01 01:09:17;;;;;;;51.40;24.33;;;4.50;99.90;;;;;;6155568;23;20091;-90
2022/12/01 01:11:45;;;;;;;50.92;25.33;;;4.60;99.90;;;;;;6156067;23;20040;-92
2022/12/01 01:14:14;;;;;;;59.42;25.70;;;4.60;99.90;;;;;;6106850;23;20032;-89
2022/12/01 01:16:43;;;;;;;49.05;24.23;;;4.50;99.90;;;;;;6156085;23;20132;-89
2022/12/01 01:19:09;;;;;;;58.17;26.02;;;3.70;99.90;;;;;;6130346;23;20072;-89
2022/12/01 01:21:35;;;;;;;57.88;26.45;;;3.80;99.90;;;;;;6154831;23;20067;-88
2022/12/01 01:24:04;;;;;;;50.22;25.85;;;6.50;99.90;;;;;;6106351;23;20021;-88
2022/12/01 01:26:31;;;;;;;56.88;27.05;;;4.50;99.90;;;;;;6106465;23;20460;-90
2022/12/01 01:29:10;;;;;;;;;;;;;;;;;;;;;
2022/12/01 01:31:36;;;;;;;51.72;26.15;;;4.80;99.90;;;;;;6156179;23;20032;-89
2022/12/01 01:34:05;;;;;;;58.78;26.83;;;4.90;99.90;;;;;;6155502;23;20021;-89
2022/12/01 01:36:34;;;;;;;53.92;25.20;;;4.80;99.90;;;;;;6131349;23;20064;-89
2022/12/01 01:39:00;;;;;;;56.85;25.08;;;4.90;99.90;;;;;;6105806;23;20021;-88
2022/12/01 01:41:28;;;;;;;54.35;24.67;;;4.60;99.90;;;;;;6155071;23;20009;-89
2022/12/01 01:44:02;;;;;;;55.60;25.35;;;4.80;99.90;;;;;;6131114;23;20093;-89
2022/12/01 01:46:37;;;;;;;56.22;25.17;;;4.80;99.90;;;;;;6155272;23;20024;-89
2022/12/01 01:49:07;;;;;;;54.90;25.15;;;4.80;99.90;;;;;;6082288;23;20103;-89
2022/12/01 01:51:54;;;;;;;59.38;26.77;;;4.90;99.90;;;;;;6153665;23;20076;-88
2022/12/01 01:54:30;;;;;;;52.50;25.38;;;4.70;99.90;;;;;;6153631;23;20045;-89
2022/12/01 01:57:01;;;;;;;56.15;26.65;;;5.00;99.90;;;;;;6156193;23;20025;-89
2022/12/01 01:59:41;;;;;;;52.67;24.65;;;4.20;99.90;;;;;;6157647;23;20031;-86
2022/12/01 02:02:11;;;;;;;56.40;25.50;;;4.00;99.90;;;;;;6157485;23;20464;-88
2022/12/01 02:04:44;;;;;;;50.28;24.45;;;6.50;99.90;;;;;;6131603;23;20021;-89
2022/12/01 02:07:16;;;;;;;51.55;24.55;;;6.90;99.90;;;;;;6155019;23;20017;-89
2022/12/01 02:09:42;;;;;;;56.20;24.63;;;5.40;99.90;;;;;;6155964;23;20107;-89
2022/12/01 02:12:11;;;;;;;49.13;24.50;;;4.80;99.90;;;;;;6155061;23;20020;-89
2022/12/01 02:14:51;;;;;;;54.08;25.55;;;4.90;99.90;;;;;;6129845;23;20503;-88
2022/12/01 02:17:30;;;;;;;59.78;27.83;;;4.80;99.90;;;;;;6130544;23;20108;-88
2022/12/01 02:20:31;;;;;;;54.03;26.13;;;4.90;99.90;;;;;;6131735;23;20140;-89
2022/12/01 02:23:00;;;;;;;52.90;25.35;;;3.70;99.90;;;;;;6155922;23;20020;-88
2022/12/01 02:25:56;;;;;;;57.20;25.73;;;5.10;99.90;;;;;;6154077;23;20086;-88
2022/12/01 02:29:09;;;;;;;55.33;25.80;;;4.90;99.90;;;;;;6153083;23;20104;-88
2022/12/01 02:31:50;;;;;;;61.83;26.83;;;4.90;99.90;;;;;;6130120;23;20018;-88
2022/12/01 02:34:27;;;;;;;56.22;25.15;;;6.00;99.90;;;;;;6129430;23;20024;-88
2022/12/01 02:37:09;;;;;;;56.65;26.15;;;4.90;99.90;;;;;;6130942;23;20441;-89
2022/12/01 02:39:50;;;;;;;58.30;26.38;;;4.90;99.90;;;;;;6154540;23;20522;-89
2022/12/01 02:42:50;;;;;;;57.00;25.25;;;4.20;99.90;;;;;;6129115;23;20446;-88
2022/12/01 02:45:44;;;;;;;58.08;24.30;;;5.00;99.90;;;;;;6085494;23;20025;-90
2022/12/01 02:48:45;;;;;;;57.50;26.77;;;4.00;99.90;;;;;;6152977;23;20099;-88
2022/12/01 02:51:46;;;;;;;;;;;;;;;;;;;;;
2022/12/01 02:54:13;;;;;;;56.70;25.35;;;6.10;99.90;;;;;;6148136;23;20119;-90
2022/12/01 02:56:44;;;;;;;55.88;25.83;;;5.00;99.90;;;;;;6151902;23;20017;-89
2022/12/01 02:59:14;;;;;;;52.70;24.90;;;6.40;99.90;;;;;;6128441;23;20506;-89
2022/12/01 03:02:01;;;;;;;56.25;25.00;;;5.00;99.90;;;;;;6128698;23;20067;-89
2022/12/01 03:04:40;;;;;;;54.65;26.23;;;5.00;99.90;;;;;;6129765;23;20017;-89
2022/12/01 03:07:23;;;;;;;53.92;24.92;;;5.20;99.90;;;;;;6130481;23;20052;-89
2022/12/01 03:10:27;;;;;;;54.83;25.77;;;5.10;99.90;;;;;;6154450;23;20024;-89
2022/12/01 03:13:19;;;;;;;52.83;23.95;;;5.20;99.90;;;;;;6154489;23;20084;-89
2022/12/01 03:16:04;;;;;;;50.63;24.02;;;6.00;99.90;;;;;;6154200;23;20017;-88
2022/12/01 03:18:37;;;;;;;56.83;24.88;;;6.40;99.90;;;;;;6129651;23;20021;-91
2022/12/01 03:21:12;;;;;;;53.25;25.20;;;5.00;99.90;;;;;;6153966;23;20476;-89
2022/12/01 03:23:50;;;;;;;52.33;25.37;;;5.00;99.90;;;;;;6129539;23;20117;-88
2022/12/01 03:26:25;;;;;;;57.92;26.38;;;5.20;99.90;;;;;;6153870;23;20044;-89
2022/12/01 03:29:06;;;;;;;56.63;25.70;;;5.10;99.90;;;;;;6153825;23;20087;-89
2022/12/01 03:31:36;;;;;;;58.22;24.98;;;5.10;99.90;;;;;;6104563;23;20020;-89
2022/12/01 03:34:16;;;;;;;53.08;24.75;;;5.10;99.90;;;;;;6152944;23;20024;-89
2022/12/01 03:36:55;;;;;;;55.40;25.67;;;5.00;99.90;;;;;;6153714;23;20017;-89
2022/12/01 03:39:28;;;;;;;52.10;25.85;;;5.10;99.90;;;;;;6153215;23;20096;-90
2022/12/01 03:42:03;;;;;;;51.20;24.38;;;5.30;99.90;;;;;;6156064;23;20124;-88
2022/12/01 03:44:37;;;;;;;56.95;25.63;;;5.30;99.90;;;;;;6155974;23;20025;-88
2022/12/01 03:47:15;;;;;;;51.70;25.73;;;5.30;99.90;;;;;;6156390;23;20341;-88
2022/12/01 03:49:43;;;;;;;57.10;26.23;;;5.10;99.90;;;;;;6131614;23;20051;-88
2022/12/01 03:52:15;;;;;;;55.42;25.77;;;5.10;99.90;;;;;;6156234;23;20032;-87
2022/12/01 03:54:46;;;;;;;58.50;27.83;;;5.30;99.90;;;;;;6131741;23;20025;-90
2022/12/01 03:57:18;;;;;;;64.70;28.30;;;5.10;99.90;;;;;;6132370;23;20024;-89
2022/12/01 03:59:46;;;;;;;54.45;25.85;;;5.20;99.90;;;;;;6156431;23;20020;-89
2022/12/01 04:02:15;;;;;;;78.63;30.13;;;;;;;;;;6157185;23;20013;-88
2022/12/01 04:04:43;;;;;;;61.13;28.23;;;5.20;99.90;;;;;;6131982;23;20052;-88
2022/12/01 04:07:14;;;;;;;63.30;26.67;;;;;;;;;;6108716;23;20021;-88
2022/12/01 04:09:40;;;;;;;54.88;26.17;;;5.20;99.90;;;;;;6130349;23;20066;-89
2022/12/01 04:14:55;;;;;;;59.33;26.77;;;5.20;99.90;;;;;;6158746;23;20027;-89
2022/12/01 04:17:26;;;;;;;68.35;27.17;;;5.30;99.90;;;;;;6108153;23;20496;-89
2022/12/01 04:19:54;;;;;;;66.22;27.90;;;3.90;99.90;;;;;;6155433;23;20021;-89
2022/12/01 04:22:23;;;;;;;61.33;27.33;;;6.60;99.90;;;;;;6107674;23;20017;-89
2022/12/01 04:24:49;;;;;;;61.08;26.42;;;5.20;99.90;;;;;;6131762;23;20040;-89
2022/12/01 04:27:17;;;;;;;63.03;28.25;;;5.30;99.90;;;;;;6155967;23;20016;-88
2022/12/01 04:29:48;;;;;;;61.63;26.85;;;5.20;99.90;;;;;;6156335;23;20028;-87
2022/12/01 04:32:21;;;;;;;61.58;27.27;;;5.30;99.90;;;;;;6156735;23;20031;-88
2022/12/01 04:34:47;;;;;;;64.28;29.75;;;5.20;99.90;;;;;;6156325;23;20021;-88
2022/12/01 04:37:15;;;;;;;65.15;28.40;;;5.20;99.90;;;;;;6131693;23;20024;-88
2022/12/01 04:39:41;;;;;;;60.38;28.00;;;5.50;99.90;;;;;;6130525;23;20048;-88
2022/12/01 04:42:08;;;;;;;65.35;28.73;;;5.30;99.90;;;;;;6156159;23;20096;-88
2022/12/01 04:44:35;;;;;;;61.17;26.13;;;5.30;99.90;;;;;;6155031;23;20025;-88
2022/12/01 04:47:01;;;;;;;63.53;28.55;;;5.40;99.90;;;;;;6131864;23;20024;-87
2022/12/01 04:49:30;;;;;;;62.63;28.25;;;5.30;99.90;;;;;;6155431;23;20021;-87
2022/12/01 04:51:59;;;;;;;71.85;28.83;;;7.00;99.90;;;;;;6131237;23;20024;-88
2022/12/01 04:54:28;;;;;;;68.05;28.90;;;5.30;99.90;;;;;;6130978;23;20548;-89
2022/12/01 04:56:54;;;;;;;66.35;28.13;;;5.30;99.90;;;;;;6130968;23;20025;-88
2022/12/01 04:59:20;;;;;;;61.58;26.48;;;5.30;99.90;;;;;;6130667;23;20021;-88
2022/12/01 05:01:46;;;;;;;60.33;27.85;;;5.30;99.90;;;;;;6129399;23;20023;-88
2022/12/01 05:04:13;;;;;;;70.57;28.50;;;5.50;99.90;;;;;;6155624;23;20013;-88
2022/12/01 05:06:41;;;;;;;68.07;28.33;;;5.20;99.90;;;;;;6130616;23;20021;-88
2022/12/01 05:09:08;;;;;;;65.05;29.90;;;5.30;99.90;;;;;;6155676;23;20047;-88
2022/12/01 05:11:34;;;;;;;68.90;29.92;;;3.90;99.90;;;;;;6155054;23;20017;-87
2022/12/01 05:14:00;;;;;;;64.22;28.00;;;5.30;99.90;;;;;;6106640;23;20118;-88
2022/12/01 05:16:31;;;;;;;68.38;29.48;;;5.40;99.90;;;;;;6155588;23;20063;-88
2022/12/01 05:21:48;;;;;;;65.55;28.77;;;5.60;99.90;;;;;;6149772;23;20567;-89
2022/12/01 05:24:26;;;;;;;71.22;30.02;;;5.30;99.90;;;;;;6126635;23;20026;-87
2022/12/01 05:26:51;;;;;;;59.33;27.35;;;3.80;99.90;;;;;;6150444;23;20040;-89
2022/12/01 05:29:20;;;;;;;70.82;30.38;;;5.60;99.90;;;;;;6123980;23;20053;-89
2022/12/01 05:31:46;;;;;;;70.18;29.95;;;5.50;99.90;;;;;;6123127;23;20415;-89
2022/12/01 05:34:12;;;;;;;67.10;28.67;;;5.90;99.90;;;;;;6124453;23;20028;-89
2022/12/01 05:36:37;;;;;;;63.55;27.50;;;5.50;99.90;;;;;;6098885;23;20021;-89
2022/12/01 05:39:06;;;;;;;68.95;29.13;;;5.50;99.90;;;;;;6123795;23;20028;-89
2022/12/01 05:41:34;;;;;;;63.53;27.58;;;5.30;99.90;;;;;;6123411;23;20041;-89
2022/12/01 05:44:00;;;;;;;70.72;29.27;;;5.50;99.90;;;;;;6148111;23;20280;-88
2022/12/01 05:46:26;;;;;;;64.28;28.30;;;7.00;99.90;;;;;;6123789;23;20606;-89
2022/12/01 05:48:52;;;;;;;64.13;26.50;;;5.30;99.90;;;;;;6148240;23;20017;-89
2022/12/01 05:51:18;;;;;;;66.88;28.45;;;5.40;99.90;;;;;;6123870;23;20154;-89
2022/12/01 05:53:46;;;;;;;63.40;28.15;;;5.60;99.90;;;;;;6123603;23;20147;-89
2022/12/01 05:56:12;;;;;;;62.95;27.73;;;5.30;99.90;;;;;;6124742;23;20022;-89
2022/12/01 05:58:48;;;;;;;68.93;29.75;;;5.30;99.90;;;;;;6099469;23;20056;-88
2022/12/01 06:01:17;;;;;;;64.93;26.40;;;5.40;99.90;;;;;;6101744;23;20020;-88
2022/12/01 06:03:45;;;;;;;66.60;29.40;;;5.60;99.90;;;;;;6123631;23;20021;-89
2022/12/01 06:06:12;;;;;;;66.93;28.60;;;;;;;;;;6099434;23;20025;-89
2022/12/01 06:08:39;;;;;;;61.47;26.90;;;5.40;99.90;;;;;;6124142;23;20108;-89
2022/12/01 06:11:05;;;;;;;66.80;28.25;;;5.50;99.90;;;;;;6148897;23;20022;-89
2022/12/01 06:13:31;;;;;;;64.63;29.38;;;5.30;99.90;;;;;;6149116;23;20349;-89
2022/12/01 06:16:05;;;;;;;59.72;26.13;;;3.80;99.90;;;;;;6126454;23;20022;-87
2022/12/01 06:18:33;;;;;;;57.47;27.02;;;5.30;99.90;;;;;;6149136;23;20084;-89
2022/12/01 06:20:59;;;;;;;59.92;26.00;;;4.30;99.90;;;;;;6149426;23;20022;-88
2022/12/01 06:23:28;;;;;;;65.18;27.33;;;5.40;99.90;;;;;;6124038;23;20025;-87
2022/12/01 06:25:53;;;;;;;56.58;26.13;;;5.20;99.90;;;;;;6148406;23;20014;-87
2022/12/01 06:28:22;;;;;;;59.50;25.88;;;5.30;99.90;;;;;;6125594;23;20025;-88
2022/12/01 06:30:47;;;;;;;72.68;29.75;;;5.30;99.90;;;;;;6122382;23;20013;-89
2022/12/01 06:33:13;;;;;;;67.05;27.55;;;5.20;99.90;;;;;;6120550;23;20040;-90
2022/12/01 06:35:39;;;;;;;66.35;29.35;;;5.30;99.90;;;;;;6097233;23;20032;-87
2022/12/01 06:38:12;;;;;;;61.78;28.52;;;7.00;99.90;;;;;;6083470;23;20022;-87
2022/12/01 06:40:37;;;;;;;62.03;28.08;;;6.80;99.90;;;;;;6126708;23;20018;-87
2022/12/01 06:43:03;;;;;;;62.28;28.80;;;5.70;99.90;;;;;;6123041;23;20021;-88
2022/12/01 06:45:35;;;;;;;69.50;29.08;;;5.10;99.90;;;;;;6147602;23;20029;-90
2022/12/01 06:48:03;;;;;;;67.30;29.42;;;5.20;99.90;;;;;;6124181;23;20448;-88
2022/12/01 06:50:39;;;;;;;56.35;27.50;;;5.80;99.90;;;;;;6099299;23;20341;-88
2022/12/01 06:53:10;;;;;;;;;;;6.60;99.90;;;;;;6149758;23;20048;-89
2022/12/01 06:55:54;;;;;;;65.03;28.42;;;4.90;99.90;;;;;;6148373;23;19999;-89
2022/12/01 06:58:20;;;;;;;58.47;27.95;;;4.80;99.90;;;;;;6146310;23;20021;-88
2022/12/01 07:00:56;;;;;;;63.17;26.42;;;3.80;99.90;;;;;;6148107;23;20018;-89
2022/12/01 07:03:31;;;;;;;52.33;25.20;;;4.40;99.90;;;;;;6119851;23;20021;-88
2022/12/01 07:06:00;;;;;;;61.30;26.50;;;6.00;99.90;;;;;;6121599;23;20056;-89
2022/12/01 07:08:31;;;;;;;52.80;25.27;;;4.80;99.90;;;;;;6145430;23;20052;-88
2022/12/01 07:11:03;;;;;;;60.42;26.20;;;4.60;99.90;;;;;;6121749;23;20389;-88
2022/12/01 07:13:29;;;;;;;55.47;25.75;;;4.60;99.90;;;;;;6146176;23;20029;-88
2022/12/01 07:15:55;;;;;;;60.92;27.48;;;4.30;99.90;;;;;;6121996;23;20028;-88
2022/12/01 07:18:21;;;;;;;57.92;24.58;;;4.10;99.90;;;;;;6120962;23;20028;-89
2022/12/01 07:20:47;;;;;;;64.20;25.63;;;4.10;99.90;;;;;;6096076;23;20365;-87
2022/12/01 07:23:13;;;;;;;54.17;26.33;;;4.00;99.90;;;;;;6121841;23;20013;-87
2022/12/01 07:25:38;;;;;;;61.17;26.05;;;4.10;99.90;;;;;;6144819;23;20018;-86
2022/12/01 07:28:04;;;;;;;63.00;26.30;;;3.90;99.90;;;;;;6098361;23;20017;-87
2022/12/01 07:30:30;;;;;;;55.00;25.67;;;4.00;99.90;;;;;;6123089;23;20029;-89
2022/12/01 07:32:56;;;;;;;51.17;24.40;;;3.90;99.90;;;;;;6096254;23;20024;-90
2022/12/01 07:35:22;;;;;;;52.60;24.75;;;4.90;99.90;;;;;;6120647;23;20061;-87
2022/12/01 07:37:56;;;;;;;62.28;25.55;;;4.30;99.90;;;;;;6120252;23;20115;-85
2022/12/01 07:40:22;;;;;;;59.72;25.05;;;3.80;99.90;;;;;;6121634;23;20032;-87
2022/12/01 07:42:48;;;;;;;60.80;26.33;;;5.50;99.90;;;;;;6145235;23;20028;-86
2022/12/01 07:45:14;;;;;;;54.55;25.02;;;3.80;99.90;;;;;;6121667;23;20018;-87
2022/12/01 07:47:39;;;;;;;61.53;25.20;;;4.70;99.90;;;;;;6098876;23;20025;-87
2022/12/01 07:50:09;;;;;;;61.65;27.38;;;3.90;99.90;;;;;;6099709;23;20017;-88
2022/12/01 07:52:35;;;;;;;59.38;26.95;;;3.90;99.90;;;;;;6121992;23;20028;-84
2022/12/01 07:55:01;;;;;;;60.40;26.27;;;4.50;99.90;;;;;;6096373;23;20025;-84
2022/12/01 07:57:29;;;;;;;68.90;27.83;;;4.00;99.90;;;;;;6146111;23;20017;-86
2022/12/01 07:59:55;;;;;;;61.78;26.77;;;5.10;99.90;;;;;;6126846;23;20013;-87
2022/12/01 08:02:22;;;;;;;72.70;29.25;;;4.30;99.90;;;;;;6152171;23;20362;-85
2022/12/01 08:04:47;;;;;;;66.00;25.27;;;4.20;99.90;;;;;;6148367;23;20025;-86
2022/12/01 08:07:22;;;;;;;69.95;27.38;;;5.40;99.90;;;;;;6149393;23;20334;-90
2022/12/01 08:09:51;;;;;;;66.13;27.85;;;4.70;99.90;;;;;;6124972;23;20441;-85
2022/12/01 08:12:17;;;;;;;76.82;29.42;;;4.50;99.90;;;;;;6126282;23;20029;-85
2022/12/01 08:14:45;;;;;;;66.75;28.63;;;4.70;99.90;;;;;;6125509;23;20032;-86
2022/12/01 08:17:10;;;;;;;73.05;29.33;;;5.00;99.90;;;;;;6105612;23;20064;-85
2022/12/01 08:19:36;;;;;;;69.22;28.95;;;4.80;99.90;;;;;;6133844;23;20025;-90
2022/12/01 08:22:05;;;;;;;77.22;29.60;;;5.10;99.90;;;;;;6156186;23;20021;-90
2022/12/01 08:24:46;;;;;;;71.18;28.15;;;5.00;99.90;;;;;;6109906;23;20036;-89
2022/12/01 08:27:22;;;;;;;65.50;27.83;;;5.00;99.90;;;;;;6112072;23;20021;-92
2022/12/01 08:29:53;;;;;;;62.92;27.23;;;4.90;99.90;;;;;;6138336;23;20025;-91
2022/12/01 08:32:29;;;;;;;63.28;26.08;;;5.20;99.90;;;;;;6156947;23;20110;-89
2022/12/01 08:34:55;;;;;;;;;;;5.30;99.90;;;;;;6131004;23;20040;-91
2022/12/01 08:37:47;;;;;;;74.20;26.80;;;5.20;99.90;;;;;;6157006;23;20320;-92
2022/12/01 08:40:21;;;;;;;65.05;27.55;;;5.40;99.90;;;;;;6146452;23;20021;-90
2022/12/01 08:42:47;;;;;;;66.32;26.27;;;5.60;99.90;;;;;;6158521;23;20032;-90
2022/12/01 08:45:22;;;;;;;66.10;27.73;;;5.50;99.90;;;;;;6158240;23;20100;-88
2022/12/01 08:47:52;;;;;;;74.45;28.75;;;6.00;99.90;;;;;;6156897;23;20071;-89
2022/12/01 08:50:18;;;;;;;80.25;31.63;;;6.70;99.90;;;;;;6157624;23;20333;-87
2022/12/01 08:52:44;;;;;;;68.40;30.58;;;7.40;99.90;;;;;;6132295;23;20021;-89
2022/12/01 08:55:27;;;;;;;61.28;29.33;;;8.30;99.90;;;;;;6157502;23;20013;-90
2022/12/01 08:57:53;;;;;;;59.10;28.35;;;7.30;99.90;;;;;;6155863;23;20168;-89
2022/12/01 09:00:28;;;;;;;48.60;25.38;;;8.20;99.90;;;;;;6132527;23;20057;-84
2022/12/01 09:02:56;;;;;;;50.28;24.63;;;7.70;99.90;;;;;;6134176;23;20021;-88
2022/12/01 09:05:22;;;;;;;47.85;23.88;;;7.70;99.90;;;;;;6108557;23;20040;-90
2022/12/01 09:08:29;;;;;;;41.63;23.00;;;7.30;99.90;;;;;;6128527;23;20025;-85
2022/12/01 09:10:36;;;;;;;41.67;21.23;;;7.40;99.90;;;;;;6133636;23;20057;-87
2022/12/01 09:13:02;;;;;;;40.60;20.83;;;7.70;99.90;;;;;;6129345;23;20024;-87
2022/12/01 09:15:30;;;;;;;37.47;19.15;;;7.40;99.90;;;;;;6129623;23;20025;-87
2022/12/01 09:17:56;;;;;;;35.28;18.48;;;7.30;99.90;;;;;;6152841;23;20333;-87
2022/12/01 09:20:25;;;;;;;36.17;18.60;;;7.20;99.90;;;;;;6130427;23;20028;-87
2022/12/01 09:22:51;;;;;;;37.70;18.23;;;6.10;99.90;;;;;;6152472;23;20053;-88
2022/12/01 09:25:16;;;;;;;32.30;17.45;;;7.20;99.90;;;;;;6154341;23;20021;-87
2022/12/01 09:27:51;;;;;;;36.58;18.60;;;7.00;99.90;;;;;;6129581;23;20027;-88
2022/12/01 09:30:17;;;;;;;33.47;17.00;;;7.30;99.90;;;;;;6129324;23;20021;-88
2022/12/01 09:32:43;;;;;;;28.63;16.30;;;7.50;99.90;;;;;;6128425;23;20029;-87
2022/12/01 09:35:09;;;;;;;29.48;15.93;;;7.60;99.90;;;;;;6126783;23;20113;-88
2022/12/01 09:37:37;;;;;;;25.73;15.23;;;7.60;99.90;;;;;;6151279;23;20456;-86
2022/12/01 09:40:03;;;;;;;25.08;14.23;;;7.90;99.90;;;;;;6148356;23;20017;-86
2022/12/01 09:42:29;;;;;;;22.65;13.13;;;7.50;99.90;;;;;;6125724;23;20017;-85
2022/12/01 09:44:59;;;;;;;22.85;12.00;;;7.50;99.90;;;;;;6099454;23;20050;-86
2022/12/01 09:47:35;;;;;;;20.92;12.27;;;7.60;99.90;;;;;;6149656;23;20020;-85
2022/12/01 09:50:01;;;;;;;;;;;7.70;99.90;;;;;;6127455;23;20044;-86
2022/12/01 09:52:39;;;;;;;21.93;11.90;;;7.80;99.90;;;;;;6128913;23;19943;-91
2022/12/01 09:55:19;;;;;;;20.35;11.27;;;7.80;99.90;;;;;;6152474;23;20095;-86
2022/12/01 09:57:51;;;;;;;21.40;11.18;;;8.00;99.90;;;;;;6152361;23;20032;-86
2022/12/01 10:00:25;;;;;;;18.88;10.25;;;8.00;99.90;;;;;;6154189;23;20074;-86
2022/12/01 10:03:00;;;;;;;17.85;10.15;;;6.40;99.90;;;;;;6152665;23;20024;-86
2022/12/01 10:05:35;;;;;;;18.30;9.80;;;8.00;99.90;;;;;;6152167;23;20114;-87
2022/12/01 10:08:04;;;;;;;14.38;9.02;;;7.60;99.90;;;;;;6151965;23;20094;-85
2022/12/01 10:10:35;;;;;;;17.00;10.20;;;7.50;99.90;;;;;;6151300;23;20017;-85
2022/12/01 10:13:01;;;;;;;16.77;10.38;;;6.60;99.90;;;;;;6152573;23;20031;-86
2022/12/01 10:15:55;;;;;;;19.75;10.90;;;7.40;99.90;;;;;;6128912;23;20033;-85
2022/12/01 10:18:35;;;;;;;18.88;11.18;;;7.50;99.90;;;;;;6126978;23;20099;-86
2022/12/01 10:21:06;;;;;;;21.55;11.30;;;8.10;99.90;;;;;;6151122;23;20013;-85
2022/12/01 10:24:00;;;;;;;18.73;10.30;;;8.30;99.90;;;;;;6152243;23;20017;-85
2022/12/01 10:26:42;;;;;;;18.27;10.25;;;8.30;99.90;;;;;;6127653;23;20403;-85
2022/12/01 10:29:45;;;;;;;18.60;9.60;;;8.20;99.90;;;;;;6150708;23;20029;-85
2022/12/01 10:32:22;;;;;;;18.65;10.65;;;8.00;99.90;;;;;;6151746;23;20087;-84
2022/12/01 10:34:48;;;;;;;17.55;10.70;;;7.90;99.90;;;;;;6127898;23;20314;-85
2022/12/01 10:37:26;;;;;;;18.08;10.48;;;8.20;99.90;;;;;;6152280;23;20452;-87
2022/12/01 10:39:54;;;;;;;16.77;9.95;;;8.20;99.90;;;;;;6151375;23;20340;-87
2022/12/01 10:42:40;;;;;;;15.52;10.18;;;8.50;99.90;;;;;;6152242;23;20017;-84
2022/12/01 10:45:14;;;;;;;15.13;9.93;;;8.60;99.90;;;;;;6126554;23;20053;-84
2022/12/01 10:48:15;;;;;;;16.63;10.15;;;8.40;99.90;;;;;;6127262;23;20028;-86
2022/12/01 10:50:55;;;;;;;15.93;9.35;;;8.30;99.90;;;;;;6152530;23;20069;-84
2022/12/01 10:53:35;;;;;;;16.88;9.70;;;8.20;99.90;;;;;;6151443;23;20028;-83
2022/12/01 10:56:12;;;;;;;14.52;9.50;;;8.10;99.90;;;;;;6151017;23;20013;-85
2022/12/01 10:59:01;;;;;;;14.80;9.00;;;8.00;99.90;;;;;;6150996;23;20032;-85
2022/12/01 11:01:30;;;;;;;15.07;8.45;;;7.90;99.90;;;;;;6150660;23;20017;-86
2022/12/01 11:04:20;;;;;;;11.98;7.28;;;7.80;99.90;;;;;;6150623;23;20087;-84
2022/12/01 11:06:49;;;;;;;12.30;7.32;;;7.70;99.90;;;;;;6150528;23;20096;-84
2022/12/01 11:09:28;;;;;;;14.43;8.02;;;7.70;99.90;;;;;;6152270;23;20021;-85
2022/12/01 11:12:03;;;;;;;14.77;9.15;;;7.50;99.90;;;;;;6148795;23;20023;-86
2022/12/01 11:14:56;;;;;;;13.82;8.07;;;7.50;99.90;;;;;;6126969;23;20096;-84
2022/12/01 11:17:49;;;;;;;14.52;7.97;;;7.40;99.90;;;;;;6125029;23;20036;-84
2022/12/01 11:20:40;;;;;;;14.57;8.10;;;7.30;99.90;;;;;;6125641;23;20029;-85
2022/12/01 11:23:28;;;;;;;13.00;7.78;;;7.20;99.90;;;;;;6150785;23;20025;-85
2022/12/01 11:26:19;;;;;;;12.52;8.02;;;7.40;99.90;;;;;;6125980;23;20021;-85
2022/12/01 11:29:01;;;;;;;13.05;7.93;;;7.20;99.90;;;;;;6149717;23;20028;-85
2022/12/01 11:31:47;;;;;;;12.82;7.00;;;6.60;99.90;;;;;;6124538;23;20024;-85
2022/12/01 11:34:33;;;;;;;10.50;6.72;;;7.00;99.90;;;;;;6150296;23;20072;-85
2022/12/01 11:37:05;;;;;;;10.02;6.32;;;7.40;99.90;;;;;;6151493;23;20029;-84
2022/12/01 11:39:36;;;;;;;11.15;6.20;;;6.90;99.90;;;;;;6149356;23;20052;-88
2022/12/01 11:42:03;;;;;;;11.60;6.38;;;6.90;99.90;;;;;;6151656;23;20019;-88
2022/12/01 11:44:31;;;;;;;12.95;6.53;;;6.90;99.90;;;;;;6128794;23;20021;-87
2022/12/01 11:47:15;;;;;;;11.98;7.03;;;6.80;99.90;;;;;;6126415;23;20018;-85
2022/12/01 11:49:46;;;;;;;12.73;6.40;;;6.80;99.90;;;;;;6152493;23;20112;-86
2022/12/01 11:52:43;;;;;;;10.73;5.90;;;6.90;99.90;;;;;;6152047;23;20100;-86
2022/12/01 11:55:09;;;;;;;;;;;7.80;99.90;;;;;;6151288;23;20247;-85
2022/12/01 11:57:36;;;;;;;10.13;5.83;;;7.20;99.90;;;;;;6150192;23;20328;-86
2022/12/01 12:00:15;;;;;;;10.93;6.15;;;7.20;99.90;;;;;;6124739;23;20016;-86
2022/12/01 12:03:03;;;;;;;11.57;7.10;;;6.80;99.90;;;;;;6127650;23;20023;-87
2022/12/01 12:05:55;;;;;;;11.20;6.72;;;6.70;99.90;;;;;;6153873;23;20329;-92
2022/12/01 12:09:14;;;;;;;12.63;7.10;;;6.70;99.90;;;;;;6150823;23;20024;-89
2022/12/01 12:11:54;;;;;;;8.95;5.65;;;6.90;99.90;;;;;;6134793;23;20052;-88
2022/12/01 12:14:42;;;;;;;11.40;6.60;;;8.50;99.90;;;;;;6136811;23;20021;-88
2022/12/01 12:17:31;;;;;;;11.18;6.43;;;6.90;99.90;;;;;;6132178;23;20452;-92
2022/12/01 12:20:29;;;;;;;;;;;;;;;;;;;;;
2022/12/01 12:23:01;;;;;;;9.77;5.55;;;7.00;99.90;;;;;;6147884;23;20341;-91
2022/12/01 12:25:48;;;;;;;7.65;5.20;;;6.70;99.90;;;;;;6146715;23;20022;-91
2022/12/01 12:29:06;;;;;;;;;;;;;;;;;;;;;
2022/12/01 12:31:51;;;;;;;;;;;;;;;;;;;;;
2022/12/01 12:38:22;;;;;;;6.75;4.68;;;6.70;99.90;;;;;;6142970;23;20071;-90
2022/12/01 12:41:20;;;;;;;6.68;4.18;;;7.30;99.90;;;;;;6130844;23;20749;-87
2022/12/01 12:44:04;;;;;;;7.60;4.75;;;7.30;99.90;;;;;;6079803;23;20025;-89
2022/12/01 12:47:30;;;;;;;7.65;4.40;;;7.40;99.90;;;;;;6129507;23;20021;-87
2022/12/01 13:39:23;;;;;;;6.07;4.45;;;7.40;99.90;;;;;;6112262;22;3935166;-85
2022/12/01 13:46:02;;;;;;;7.95;5.38;;;7.40;99.90;;;;;;6264245;22;20019;-90
2022/12/01 13:52:15;;;;;;;6.78;4.55;;;7.40;99.90;;;;;;6240371;22;20069;-85
2022/12/01 13:54:58;;;;;;;8.02;4.78;;;7.20;99.90;;;;;;6229308;22;20023;-86
2022/12/01 13:58:07;;;;;;;6.10;4.30;;;7.40;99.90;;;;;;6253125;22;20027;-88
2022/12/01 14:00:44;;;;;;;7.80;4.30;;;7.60;99.90;;;;;;6079675;23;20029;-86
2022/12/01 14:06:31;;;;;;;7.88;4.15;;;7.40;99.90;;;;;;6237705;22;20015;-89
2022/12/01 14:09:14;;;;;;;7.47;4.40;;;6.20;99.90;;;;;;6206243;22;20019;-87
2022/12/01 14:12:02;;;;;;;7.63;4.53;;;8.30;99.90;;;;;;6226975;22;20011;-89
2022/12/01 14:15:04;;;;;;;11.27;4.70;;;7.10;99.90;;;;;;6227831;22;20070;-88
2022/12/01 14:17:40;;;;;;;7.28;4.15;;;7.20;99.90;;;;;;6217688;22;20072;-86
2022/12/01 14:20:29;;;;;;;8.10;4.40;;;7.00;99.90;;;;;;6225602;22;20023;-87
2022/12/01 14:24:01;;;;;;;8.38;4.57;;;7.00;99.90;;;;;;6224495;22;20087;-88
2022/12/01 14:26:48;;;;;;;7.10;5.03;;;7.00;99.90;;;;;;6070671;23;20022;-86
2022/12/01 14:29:37;;;;;;;6.45;4.13;;;7.00;99.90;;;;;;6094596;23;20574;-84
2022/12/01 14:32:15;;;;;;;6.63;4.40;;;7.00;99.90;;;;;;6213560;22;20016;-84
2022/12/01 14:34:42;;;;;;;6.93;4.30;;;7.00;99.90;;;;;;6218602;22;20392;-84
2022/12/01 14:37:18;;;;;;;6.85;4.38;;;6.90;99.90;;;;;;6242635;22;20020;-84